Terminal Aerodrome Forecast
Issued by NWS

Home | Current Version | Previous Version | Text Only | Print | Product List | Glossary On
Versions: 1 2 3 4 5 6 7 8 9 10 11 12 13 14 15 16 17
000
FTUS46 KPDT 150540
TAFYKM
TAF
KYKM 150540Z 1506/1606 VRB06KT P6SM OVC018
      TEMPO 1510/1514 5SM BR OVC009
     FM151400 26004KT 5SM BR BKN009 OVC013
     FM151800 VRB03KT 4SM -RA BR BKN006 OVC010
     FM152100 28008KT 6SM BR FEW006 BKN020 OVC045=

USA.gov is the U.S. government's official web portal to all federal, state and local government web resources and services.